This is the latest recevied weather packets stored in our database for station/object KQ7A. If no packets are shown the sender has not sent any weather packets the latest 10 day(s).
| Time | Temp. | Humidity | Pressure | Rain* | Wind** | Luminosity | Snow |
|---|---|---|---|---|---|---|---|
| 1777532450 | 7.22° C | 59% | 1019.3 hPa | 0 mm | - | 0 W/m² | - |
| 1777532148 | 7.22° C | 57% | 1019.3 hPa | 0 mm | - | 0 W/m² | - |
| 1777531843 | 7.78° C | 50% | 1019.3 hPa | 0 mm | - | 0 W/m² | - |
| 1777531539 | 7.78° C | 52% | 1019.3 hPa | 0 mm | - | 0 W/m² | - |
| 1777531237 | 7.22° C | 54% | 1019.6 hPa | 0 mm | - | 0 W/m² | - |
| 1777530935 | 7.22° C | 58% | 1019.3 hPa | 0 mm | - | 0 W/m² | - |
| 1777530632 | 7.22° C | 62% | 1019.4 hPa | 0 mm | - | 0 W/m² | - |
| 1777530329 | 7.78° C | 61% | 1019.3 hPa | 0 mm | - | 0 W/m² | - |
| 1777530025 | 8.33° C | 51% | 1019.3 hPa | 0 mm | - | 0 W/m² | - |
| 1777529723 | 8.89° C | 53% | 1019.3 hPa | 0 mm | - | 0 W/m² | - |
| 1777529419 | 9.44° C | 48% | 1019.3 hPa | 0 mm | - | 0 W/m² | - |
| 1777529116 | 8.89° C | 52% | 1019.2 hPa | 0 mm | - | 0 W/m² | - |
| 1777528812 | 10° C | 48% | 1019.3 hPa | 0 mm | - | 0 W/m² | - |
| 1777528509 | 9.44° C | 47% | 1019.4 hPa | 0 mm | - | 0 W/m² | - |
| 1777528207 | 9.44° C | 55% | 1019.6 hPa | 0 mm | - | 0 W/m² | - |
| 1777527904 | 9.44° C | 56% | 1019.6 hPa | 0 mm | - | 0 W/m² | - |
| 1777527600 | 9.44° C | 53% | 1019.4 hPa | 0 mm | - | 0 W/m² | - |
| 1777527294 | 9.44° C | 54% | 1019.6 hPa | 0 mm | - | 0 W/m² | - |
| 1777526990 | 10° C | 51% | 1019.7 hPa | 0 mm | - | 0 W/m² | - |
| 1777526685 | 11.11° C | 48% | 1019.6 hPa | 0 mm | - | 0 W/m² | - |
| 1777526376 | 11.11° C | 52% | 1019.4 hPa | 0 mm | - | 0 W/m² | - |
| 1777526071 | 11.11° C | 50% | 1019.6 hPa | 0 mm | - | 0 W/m² | - |
| 1777525768 | 11.11° C | 49% | 1019.4 hPa | 0 mm | - | 0 W/m² | - |
| 1777525466 | 11.11° C | 50% | 1019.7 hPa | 0 mm | - | 0 W/m² | - |
| 1777525161 | 10.56° C | 50% | 1019.3 hPa | 0 mm | - | 0 W/m² | - |
* Rain latest hour (hover to see other rain measurements)
** Current wind speed in m/s (hover to see current wind gust speed)